sensor_id;sensor_type;location;lat;lon;timestamp;P1;durP1;ratioP1;P2;durP2;ratioP2
85561;SDS011;76005;50.882;3.882;2024-01-27T00:01:39;11.70;;;5.88;;
85561;SDS011;76005;50.882;3.882;2024-01-27T00:04:05;11.40;;;5.40;;
85561;SDS011;76005;50.882;3.882;2024-01-27T00:06:31;15.15;;;6.22;;
85561;SDS011;76005;50.882;3.882;2024-01-27T00:08:56;12.80;;;5.60;;
85561;SDS011;76005;50.882;3.882;2024-01-27T00:11:22;13.80;;;5.75;;
85561;SDS011;76005;50.882;3.882;2024-01-27T00:13:50;13.82;;;5.97;;
85561;SDS011;76005;50.882;3.882;2024-01-27T00:16:16;13.13;;;6.45;;
85561;SDS011;76005;50.882;3.882;2024-01-27T00:18:42;11.02;;;5.78;;
85561;SDS011;76005;50.882;3.882;2024-01-27T00:21:07;13.40;;;5.95;;
85561;SDS011;76005;50.882;3.882;2024-01-27T00:23:33;14.13;;;6.88;;
85561;SDS011;76005;50.882;3.882;2024-01-27T00:26:00;15.95;;;7.43;;
85561;SDS011;76005;50.882;3.882;2024-01-27T00:28:26;13.40;;;6.47;;
85561;SDS011;76005;50.882;3.882;2024-01-27T00:30:51;17.20;;;6.82;;
85561;SDS011;76005;50.882;3.882;2024-01-27T00:33:17;15.27;;;5.97;;
85561;SDS011;76005;50.882;3.882;2024-01-27T00:35:43;14.40;;;6.38;;
85561;SDS011;76005;50.882;3.882;2024-01-27T00:38:09;13.68;;;6.13;;
85561;SDS011;76005;50.882;3.882;2024-01-27T00:40:34;13.88;;;5.85;;
85561;SDS011;76005;50.882;3.882;2024-01-27T00:43:03;13.82;;;5.70;;
85561;SDS011;76005;50.882;3.882;2024-01-27T00:45:29;13.45;;;6.00;;
85561;SDS011;76005;50.882;3.882;2024-01-27T00:47:58;12.00;;;6.47;;
85561;SDS011;76005;50.882;3.882;2024-01-27T00:50:24;10.77;;;6.53;;
85561;SDS011;76005;50.882;3.882;2024-01-27T00:52:50;17.17;;;5.97;;
85561;SDS011;76005;50.882;3.882;2024-01-27T00:55:16;13.40;;;6.68;;
85561;SDS011;76005;50.882;3.882;2024-01-27T00:57:42;20.17;;;7.10;;
85561;SDS011;76005;50.882;3.882;2024-01-27T01:00:08;11.65;;;5.90;;
85561;SDS011;76005;50.882;3.882;2024-01-27T01:02:35;15.77;;;7.20;;
85561;SDS011;76005;50.882;3.882;2024-01-27T01:05:02;18.27;;;6.97;;
85561;SDS011;76005;50.882;3.882;2024-01-27T01:07:29;13.77;;;5.95;;
85561;SDS011;76005;50.882;3.882;2024-01-27T01:09:55;13.55;;;6.18;;
85561;SDS011;76005;50.882;3.882;2024-01-27T01:12:21;12.85;;;5.95;;
85561;SDS011;76005;50.882;3.882;2024-01-27T01:14:47;15.10;;;5.82;;
85561;SDS011;76005;50.882;3.882;2024-01-27T01:17:12;13.18;;;6.22;;
85561;SDS011;76005;50.882;3.882;2024-01-27T01:19:38;12.80;;;6.30;;
85561;SDS011;76005;50.882;3.882;2024-01-27T01:22:05;13.95;;;5.97;;
85561;SDS011;76005;50.882;3.882;2024-01-27T01:24:32;14.85;;;6.40;;
85561;SDS011;76005;50.882;3.882;2024-01-27T01:26:57;16.52;;;6.35;;
85561;SDS011;76005;50.882;3.882;2024-01-27T01:29:24;13.40;;;6.10;;
85561;SDS011;76005;50.882;3.882;2024-01-27T01:31:50;14.70;;;7.32;;
85561;SDS011;76005;50.882;3.882;2024-01-27T01:34:16;13.10;;;5.80;;
85561;SDS011;76005;50.882;3.882;2024-01-27T01:36:42;13.45;;;6.38;;
85561;SDS011;76005;50.882;3.882;2024-01-27T01:39:09;14.23;;;6.30;;
85561;SDS011;76005;50.882;3.882;2024-01-27T01:41:36;12.00;;;6.03;;
85561;SDS011;76005;50.882;3.882;2024-01-27T01:44:01;13.15;;;6.90;;
85561;SDS011;76005;50.882;3.882;2024-01-27T01:46:27;15.85;;;6.05;;
85561;SDS011;76005;50.882;3.882;2024-01-27T01:48:53;16.13;;;7.05;;
85561;SDS011;76005;50.882;3.882;2024-01-27T01:51:19;13.10;;;6.53;;
85561;SDS011;76005;50.882;3.882;2024-01-27T01:53:45;14.67;;;5.90;;
85561;SDS011;76005;50.882;3.882;2024-01-27T01:56:14;11.85;;;5.97;;
85561;SDS011;76005;50.882;3.882;2024-01-27T01:58:40;11.00;;;6.63;;
85561;SDS011;76005;50.882;3.882;2024-01-27T02:01:06;18.05;;;7.03;;
85561;SDS011;76005;50.882;3.882;2024-01-27T02:03:32;13.20;;;6.72;;
85561;SDS011;76005;50.882;3.882;2024-01-27T02:05:57;14.52;;;6.72;;
85561;SDS011;76005;50.882;3.882;2024-01-27T02:08:23;15.23;;;7.05;;
85561;SDS011;76005;50.882;3.882;2024-01-27T02:10:49;15.15;;;7.38;;
85561;SDS011;76005;50.882;3.882;2024-01-27T02:15:44;16.38;;;6.47;;
85561;SDS011;76005;50.882;3.882;2024-01-27T02:18:10;13.93;;;6.45;;
85561;SDS011;76005;50.882;3.882;2024-01-27T02:20:36;13.40;;;6.70;;
85561;SDS011;76005;50.882;3.882;2024-01-27T02:23:03;14.70;;;6.82;;
85561;SDS011;76005;50.882;3.882;2024-01-27T02:25:34;14.82;;;7.20;;
85561;SDS011;76005;50.882;3.882;2024-01-27T02:28:01;14.88;;;6.88;;
85561;SDS011;76005;50.882;3.882;2024-01-27T02:30:30;14.18;;;7.43;;
85561;SDS011;76005;50.882;3.882;2024-01-27T02:32:56;13.73;;;6.95;;
85561;SDS011;76005;50.882;3.882;2024-01-27T02:37:49;14.27;;;7.07;;
85561;SDS011;76005;50.882;3.882;2024-01-27T02:40:14;12.63;;;6.95;;
85561;SDS011;76005;50.882;3.882;2024-01-27T02:42:40;14.98;;;7.38;;
85561;SDS011;76005;50.882;3.882;2024-01-27T02:45:09;13.57;;;7.05;;
85561;SDS011;76005;50.882;3.882;2024-01-27T02:50:02;15.83;;;7.50;;
85561;SDS011;76005;50.882;3.882;2024-01-27T02:52:28;14.18;;;7.50;;
85561;SDS011;76005;50.882;3.882;2024-01-27T02:54:55;15.88;;;8.02;;
85561;SDS011;76005;50.882;3.882;2024-01-27T02:57:21;14.00;;;7.07;;
85561;SDS011;76005;50.882;3.882;2024-01-27T02:59:46;14.57;;;8.43;;
85561;SDS011;76005;50.882;3.882;2024-01-27T03:02:12;14.45;;;7.90;;
85561;SDS011;76005;50.882;3.882;2024-01-27T03:04:38;15.57;;;7.63;;
85561;SDS011;76005;50.882;3.882;2024-01-27T03:07:03;16.02;;;8.00;;
85561;SDS011;76005;50.882;3.882;2024-01-27T03:09:29;15.52;;;7.63;;
85561;SDS011;76005;50.882;3.882;2024-01-27T03:11:56;13.73;;;7.72;;
85561;SDS011;76005;50.882;3.882;2024-01-27T03:14:21;12.25;;;7.47;;
85561;SDS011;76005;50.882;3.882;2024-01-27T03:16:47;13.27;;;7.47;;
85561;SDS011;76005;50.882;3.882;2024-01-27T03:19:13;20.33;;;8.40;;
85561;SDS011;76005;50.882;3.882;2024-01-27T03:21:38;12.73;;;8.23;;
85561;SDS011;76005;50.882;3.882;2024-01-27T03:24:04;15.48;;;8.35;;
85561;SDS011;76005;50.882;3.882;2024-01-27T03:26:30;16.58;;;7.90;;
85561;SDS011;76005;50.882;3.882;2024-01-27T03:28:56;13.75;;;8.10;;
85561;SDS011;76005;50.882;3.882;2024-01-27T03:31:21;20.83;;;8.75;;
85561;SDS011;76005;50.882;3.882;2024-01-27T03:33:47;17.52;;;8.70;;
85561;SDS011;76005;50.882;3.882;2024-01-27T03:36:13;14.70;;;8.05;;
85561;SDS011;76005;50.882;3.882;2024-01-27T03:38:40;15.43;;;8.15;;
85561;SDS011;76005;50.882;3.882;2024-01-27T03:43:32;14.27;;;7.60;;
85561;SDS011;76005;50.882;3.882;2024-01-27T03:48:24;16.87;;;9.00;;
85561;SDS011;76005;50.882;3.882;2024-01-27T03:50:50;13.43;;;8.25;;
85561;SDS011;76005;50.882;3.882;2024-01-27T03:53:16;20.05;;;9.07;;
85561;SDS011;76005;50.882;3.882;2024-01-27T03:55:42;17.08;;;9.23;;
85561;SDS011;76005;50.882;3.882;2024-01-27T03:58:07;15.52;;;8.10;;
85561;SDS011;76005;50.882;3.882;2024-01-27T04:00:33;18.98;;;9.25;;
85561;SDS011;76005;50.882;3.882;2024-01-27T04:02:59;14.30;;;8.43;;
85561;SDS011;76005;50.882;3.882;2024-01-27T04:05:25;15.55;;;9.18;;
85561;SDS011;76005;50.882;3.882;2024-01-27T04:07:51;21.73;;;9.43;;
85561;SDS011;76005;50.882;3.882;2024-01-27T04:10:17;12.70;;;8.50;;
85561;SDS011;76005;50.882;3.882;2024-01-27T04:12:43;16.15;;;8.18;;
85561;SDS011;76005;50.882;3.882;2024-01-27T04:15:12;12.15;;;8.13;;
85561;SDS011;76005;50.882;3.882;2024-01-27T04:17:38;15.60;;;8.75;;
85561;SDS011;76005;50.882;3.882;2024-01-27T04:20:05;18.42;;;8.80;;
85561;SDS011;76005;50.882;3.882;2024-01-27T04:22:32;13.82;;;8.55;;
85561;SDS011;76005;50.882;3.882;2024-01-27T04:24:58;19.45;;;9.18;;
85561;SDS011;76005;50.882;3.882;2024-01-27T04:27:24;18.48;;;8.25;;
85561;SDS011;76005;50.882;3.882;2024-01-27T04:29:52;17.05;;;8.32;;
85561;SDS011;76005;50.882;3.882;2024-01-27T04:32:17;14.20;;;8.73;;
85561;SDS011;76005;50.882;3.882;2024-01-27T04:34:43;11.93;;;7.97;;
85561;SDS011;76005;50.882;3.882;2024-01-27T04:37:09;20.10;;;10.07;;
85561;SDS011;76005;50.882;3.882;2024-01-27T04:39:34;15.80;;;8.52;;
85561;SDS011;76005;50.882;3.882;2024-01-27T04:42:00;16.60;;;9.02;;
85561;SDS011;76005;50.882;3.882;2024-01-27T04:44:26;14.43;;;8.98;;
85561;SDS011;76005;50.882;3.882;2024-01-27T04:46:52;13.32;;;8.63;;
85561;SDS011;76005;50.882;3.882;2024-01-27T04:49:18;13.45;;;9.13;;
85561;SDS011;76005;50.882;3.882;2024-01-27T04:51:43;14.25;;;7.90;;
85561;SDS011;76005;50.882;3.882;2024-01-27T04:54:09;14.65;;;7.93;;
85561;SDS011;76005;50.882;3.882;2024-01-27T04:56:35;15.20;;;8.55;;
85561;SDS011;76005;50.882;3.882;2024-01-27T04:59:02;14.43;;;8.05;;
85561;SDS011;76005;50.882;3.882;2024-01-27T05:01:28;15.73;;;9.00;;
85561;SDS011;76005;50.882;3.882;2024-01-27T05:03:53;15.15;;;8.45;;
85561;SDS011;76005;50.882;3.882;2024-01-27T05:06:19;15.13;;;8.30;;
85561;SDS011;76005;50.882;3.882;2024-01-27T05:08:45;15.90;;;8.40;;
85561;SDS011;76005;50.882;3.882;2024-01-27T05:11:10;16.90;;;8.38;;
85561;SDS011;76005;50.882;3.882;2024-01-27T05:13:36;14.63;;;7.68;;
85561;SDS011;76005;50.882;3.882;2024-01-27T05:16:05;12.85;;;8.25;;
85561;SDS011;76005;50.882;3.882;2024-01-27T05:18:31;13.90;;;8.70;;
85561;SDS011;76005;50.882;3.882;2024-01-27T05:20:56;15.95;;;8.93;;
85561;SDS011;76005;50.882;3.882;2024-01-27T05:23:22;13.05;;;8.52;;
85561;SDS011;76005;50.882;3.882;2024-01-27T05:25:48;16.95;;;9.20;;
85561;SDS011;76005;50.882;3.882;2024-01-27T05:28:14;18.23;;;8.88;;
85561;SDS011;76005;50.882;3.882;2024-01-27T05:30:40;17.20;;;8.25;;
85561;SDS011;76005;50.882;3.882;2024-01-27T05:33:05;16.15;;;8.57;;
85561;SDS011;76005;50.882;3.882;2024-01-27T05:35:31;13.80;;;8.15;;
85561;SDS011;76005;50.882;3.882;2024-01-27T05:37:57;17.77;;;8.07;;
85561;SDS011;76005;50.882;3.882;2024-01-27T05:40:22;13.35;;;7.85;;
85561;SDS011;76005;50.882;3.882;2024-01-27T05:42:48;13.88;;;8.55;;
85561;SDS011;76005;50.882;3.882;2024-01-27T05:45:14;15.48;;;8.30;;
85561;SDS011;76005;50.882;3.882;2024-01-27T05:47:40;14.40;;;7.95;;
85561;SDS011;76005;50.882;3.882;2024-01-27T05:50:06;13.82;;;8.23;;
85561;SDS011;76005;50.882;3.882;2024-01-27T05:52:33;16.63;;;7.80;;
85561;SDS011;76005;50.882;3.882;2024-01-27T05:55:02;16.13;;;7.95;;
85561;SDS011;76005;50.882;3.882;2024-01-27T05:57:31;14.93;;;7.88;;
85561;SDS011;76005;50.882;3.882;2024-01-27T05:59:57;13.10;;;7.75;;
85561;SDS011;76005;50.882;3.882;2024-01-27T06:02:23;15.73;;;7.85;;
85561;SDS011;76005;50.882;3.882;2024-01-27T06:04:49;14.00;;;7.95;;
85561;SDS011;76005;50.882;3.882;2024-01-27T06:07:14;15.40;;;8.40;;
85561;SDS011;76005;50.882;3.882;2024-01-27T06:09:40;16.77;;;8.63;;
85561;SDS011;76005;50.882;3.882;2024-01-27T06:12:06;17.48;;;8.32;;
85561;SDS011;76005;50.882;3.882;2024-01-27T06:14:32;14.95;;;8.43;;
85561;SDS011;76005;50.882;3.882;2024-01-27T06:16:57;12.75;;;8.05;;
85561;SDS011;76005;50.882;3.882;2024-01-27T06:19:23;12.77;;;7.75;;
85561;SDS011;76005;50.882;3.882;2024-01-27T06:21:49;16.45;;;7.78;;
85561;SDS011;76005;50.882;3.882;2024-01-27T06:24:14;16.70;;;8.18;;
85561;SDS011;76005;50.882;3.882;2024-01-27T06:26:40;14.70;;;8.52;;
85561;SDS011;76005;50.882;3.882;2024-01-27T06:29:06;13.60;;;7.93;;
85561;SDS011;76005;50.882;3.882;2024-01-27T06:31:32;12.68;;;7.25;;
85561;SDS011;76005;50.882;3.882;2024-01-27T06:33:57;12.93;;;7.75;;
85561;SDS011;76005;50.882;3.882;2024-01-27T06:36:23;15.48;;;8.45;;
85561;SDS011;76005;50.882;3.882;2024-01-27T06:38:50;16.55;;;8.02;;
85561;SDS011;76005;50.882;3.882;2024-01-27T06:41:16;12.45;;;7.80;;
85561;SDS011;76005;50.882;3.882;2024-01-27T06:43:42;16.13;;;8.75;;
85561;SDS011;76005;50.882;3.882;2024-01-27T06:46:08;16.05;;;8.00;;
85561;SDS011;76005;50.882;3.882;2024-01-27T06:48:34;16.20;;;8.00;;
85561;SDS011;76005;50.882;3.882;2024-01-27T06:50:59;15.35;;;8.35;;
85561;SDS011;76005;50.882;3.882;2024-01-27T06:53:25;12.73;;;7.35;;
85561;SDS011;76005;50.882;3.882;2024-01-27T06:55:51;12.77;;;7.50;;
85561;SDS011;76005;50.882;3.882;2024-01-27T06:58:16;13.60;;;7.72;;
85561;SDS011;76005;50.882;3.882;2024-01-27T07:00:42;14.05;;;7.45;;
85561;SDS011;76005;50.882;3.882;2024-01-27T07:03:10;17.08;;;7.22;;
85561;SDS011;76005;50.882;3.882;2024-01-27T07:05:36;17.10;;;7.90;;
85561;SDS011;76005;50.882;3.882;2024-01-27T07:08:08;19.08;;;7.68;;
85561;SDS011;76005;50.882;3.882;2024-01-27T07:10:34;14.18;;;7.28;;
85561;SDS011;76005;50.882;3.882;2024-01-27T07:13:00;19.13;;;7.33;;
85561;SDS011;76005;50.882;3.882;2024-01-27T07:15:26;16.33;;;7.43;;
85561;SDS011;76005;50.882;3.882;2024-01-27T07:17:53;20.08;;;7.82;;
85561;SDS011;76005;50.882;3.882;2024-01-27T07:20:19;16.65;;;7.72;;
85561;SDS011;76005;50.882;3.882;2024-01-27T07:22:46;14.07;;;7.65;;
85561;SDS011;76005;50.882;3.882;2024-01-27T07:25:12;16.92;;;7.32;;
85561;SDS011;76005;50.882;3.882;2024-01-27T07:27:38;15.45;;;8.23;;
85561;SDS011;76005;50.882;3.882;2024-01-27T07:30:05;16.52;;;7.55;;
85561;SDS011;76005;50.882;3.882;2024-01-27T07:32:31;19.65;;;10.05;;
85561;SDS011;76005;50.882;3.882;2024-01-27T07:34:57;14.55;;;7.05;;
85561;SDS011;76005;50.882;3.882;2024-01-27T07:37:23;15.57;;;7.45;;
85561;SDS011;76005;50.882;3.882;2024-01-27T07:39:48;14.15;;;7.50;;
85561;SDS011;76005;50.882;3.882;2024-01-27T07:42:14;17.38;;;7.45;;
85561;SDS011;76005;50.882;3.882;2024-01-27T07:44:40;13.63;;;7.20;;
85561;SDS011;76005;50.882;3.882;2024-01-27T07:47:07;12.73;;;7.35;;
85561;SDS011;76005;50.882;3.882;2024-01-27T07:49:36;13.98;;;7.38;;
85561;SDS011;76005;50.882;3.882;2024-01-27T07:52:01;13.65;;;7.78;;
85561;SDS011;76005;50.882;3.882;2024-01-27T07:54:27;13.85;;;7.10;;
85561;SDS011;76005;50.882;3.882;2024-01-27T07:56:54;20.17;;;8.05;;
85561;SDS011;76005;50.882;3.882;2024-01-27T07:59:19;16.67;;;7.15;;
85561;SDS011;76005;50.882;3.882;2024-01-27T08:01:45;14.85;;;6.97;;
85561;SDS011;76005;50.882;3.882;2024-01-27T08:04:11;15.80;;;6.65;;
85561;SDS011;76005;50.882;3.882;2024-01-27T08:06:46;13.57;;;7.05;;
85561;SDS011;76005;50.882;3.882;2024-01-27T08:09:13;18.05;;;7.78;;
85561;SDS011;76005;50.882;3.882;2024-01-27T08:11:39;18.02;;;7.80;;
85561;SDS011;76005;50.882;3.882;2024-01-27T08:14:05;16.33;;;6.80;;
85561;SDS011;76005;50.882;3.882;2024-01-27T08:16:31;14.68;;;7.10;;
85561;SDS011;76005;50.882;3.882;2024-01-27T08:18:57;14.82;;;6.93;;
85561;SDS011;76005;50.882;3.882;2024-01-27T08:21:22;17.67;;;6.97;;
85561;SDS011;76005;50.882;3.882;2024-01-27T08:23:48;16.63;;;6.60;;
85561;SDS011;76005;50.882;3.882;2024-01-27T08:26:14;18.55;;;6.90;;
85561;SDS011;76005;50.882;3.882;2024-01-27T08:28:40;12.07;;;5.95;;
85561;SDS011;76005;50.882;3.882;2024-01-27T08:31:05;16.02;;;6.68;;
85561;SDS011;76005;50.882;3.882;2024-01-27T08:33:31;17.45;;;7.20;;
85561;SDS011;76005;50.882;3.882;2024-01-27T08:35:57;15.02;;;6.70;;
85561;SDS011;76005;50.882;3.882;2024-01-27T08:38:23;9.98;;;5.97;;
85561;SDS011;76005;50.882;3.882;2024-01-27T08:40:48;15.98;;;5.50;;
85561;SDS011;76005;50.882;3.882;2024-01-27T08:43:14;17.95;;;6.30;;
85561;SDS011;76005;50.882;3.882;2024-01-27T08:45:40;14.23;;;5.68;;
85561;SDS011;76005;50.882;3.882;2024-01-27T08:48:06;16.33;;;6.53;;
85561;SDS011;76005;50.882;3.882;2024-01-27T08:50:32;11.23;;;4.88;;
85561;SDS011;76005;50.882;3.882;2024-01-27T08:52:57;12.95;;;6.22;;
85561;SDS011;76005;50.882;3.882;2024-01-27T08:55:23;13.30;;;5.72;;
85561;SDS011;76005;50.882;3.882;2024-01-27T08:57:52;13.38;;;4.80;;
85561;SDS011;76005;50.882;3.882;2024-01-27T09:00:18;12.73;;;5.22;;
85561;SDS011;76005;50.882;3.882;2024-01-27T09:02:44;10.95;;;5.57;;
85561;SDS011;76005;50.882;3.882;2024-01-27T09:05:10;12.40;;;5.65;;
85561;SDS011;76005;50.882;3.882;2024-01-27T09:07:36;13.82;;;5.22;;
85561;SDS011;76005;50.882;3.882;2024-01-27T09:10:02;11.02;;;5.70;;
85561;SDS011;76005;50.882;3.882;2024-01-27T09:12:28;13.32;;;5.55;;
85561;SDS011;76005;50.882;3.882;2024-01-27T09:14:53;12.05;;;6.00;;
85561;SDS011;76005;50.882;3.882;2024-01-27T09:17:20;14.15;;;4.95;;
85561;SDS011;76005;50.882;3.882;2024-01-27T09:19:45;17.30;;;6.13;;
85561;SDS011;76005;50.882;3.882;2024-01-27T09:22:11;15.05;;;5.13;;
85561;SDS011;76005;50.882;3.882;2024-01-27T09:24:37;13.23;;;5.43;;
85561;SDS011;76005;50.882;3.882;2024-01-27T09:27:03;11.07;;;4.80;;
85561;SDS011;76005;50.882;3.882;2024-01-27T09:29:29;12.30;;;5.22;;
85561;SDS011;76005;50.882;3.882;2024-01-27T09:31:55;10.80;;;4.32;;
85561;SDS011;76005;50.882;3.882;2024-01-27T09:34:20;10.07;;;4.38;;
85561;SDS011;76005;50.882;3.882;2024-01-27T09:36:46;13.50;;;5.05;;
85561;SDS011;76005;50.882;3.882;2024-01-27T09:39:12;12.90;;;4.47;;
85561;SDS011;76005;50.882;3.882;2024-01-27T09:41:38;14.77;;;5.57;;
85561;SDS011;76005;50.882;3.882;2024-01-27T09:44:03;12.98;;;4.70;;
85561;SDS011;76005;50.882;3.882;2024-01-27T09:46:30;11.38;;;3.90;;
85561;SDS011;76005;50.882;3.882;2024-01-27T09:51:24;11.13;;;3.92;;
85561;SDS011;76005;50.882;3.882;2024-01-27T09:53:50;12.93;;;4.18;;
85561;SDS011;76005;50.882;3.882;2024-01-27T09:56:17;9.38;;;3.92;;
85561;SDS011;76005;50.882;3.882;2024-01-27T09:58:44;11.45;;;4.78;;
85561;SDS011;76005;50.882;3.882;2024-01-27T10:01:10;10.93;;;3.70;;
85561;SDS011;76005;50.882;3.882;2024-01-27T10:03:38;15.38;;;4.60;;
85561;SDS011;76005;50.882;3.882;2024-01-27T10:06:07;11.15;;;4.43;;
85561;SDS011;76005;50.882;3.882;2024-01-27T10:08:34;10.93;;;4.55;;
85561;SDS011;76005;50.882;3.882;2024-01-27T10:11:00;11.75;;;4.22;;
85561;SDS011;76005;50.882;3.882;2024-01-27T10:13:32;12.88;;;4.60;;
85561;SDS011;76005;50.882;3.882;2024-01-27T10:18:33;13.25;;;4.90;;
85561;SDS011;76005;50.882;3.882;2024-01-27T10:20:59;15.27;;;5.37;;
85561;SDS011;76005;50.882;3.882;2024-01-27T10:23:38;10.82;;;4.70;;
85561;SDS011;76005;50.882;3.882;2024-01-27T10:26:04;11.35;;;5.18;;
85561;SDS011;76005;50.882;3.882;2024-01-27T10:28:30;11.95;;;5.07;;
85561;SDS011;76005;50.882;3.882;2024-01-27T10:31:07;12.15;;;4.72;;
85561;SDS011;76005;50.882;3.882;2024-01-27T10:33:36;11.07;;;5.22;;
85561;SDS011;76005;50.882;3.882;2024-01-27T10:36:02;10.90;;;5.30;;
85561;SDS011;76005;50.882;3.882;2024-01-27T10:38:37;11.23;;;4.78;;
85561;SDS011;76005;50.882;3.882;2024-01-27T10:41:04;11.55;;;5.05;;
85561;SDS011;76005;50.882;3.882;2024-01-27T10:43:35;11.85;;;4.72;;
85561;SDS011;76005;50.882;3.882;2024-01-27T10:46:03;12.43;;;4.60;;
85561;SDS011;76005;50.882;3.882;2024-01-27T10:48:31;11.10;;;4.45;;
85561;SDS011;76005;50.882;3.882;2024-01-27T10:51:11;10.52;;;4.13;;
85561;SDS011;76005;50.882;3.882;2024-01-27T10:53:42;12.38;;;4.90;;
85561;SDS011;76005;50.882;3.882;2024-01-27T10:56:13;11.77;;;4.57;;
85561;SDS011;76005;50.882;3.882;2024-01-27T10:58:39;9.80;;;3.73;;
85561;SDS011;76005;50.882;3.882;2024-01-27T11:01:10;10.32;;;4.57;;
85561;SDS011;76005;50.882;3.882;2024-01-27T11:03:39;10.50;;;4.65;;
85561;SDS011;76005;50.882;3.882;2024-01-27T11:06:05;11.73;;;4.63;;
85561;SDS011;76005;50.882;3.882;2024-01-27T11:08:32;12.20;;;4.80;;
85561;SDS011;76005;50.882;3.882;2024-01-27T11:10:59;13.52;;;4.70;;
85561;SDS011;76005;50.882;3.882;2024-01-27T11:13:27;11.85;;;5.07;;
85561;SDS011;76005;50.882;3.882;2024-01-27T11:15:55;12.02;;;4.80;;
85561;SDS011;76005;50.882;3.882;2024-01-27T11:18:21;10.85;;;4.47;;
85561;SDS011;76005;50.882;3.882;2024-01-27T11:20:47;10.25;;;4.35;;
85561;SDS011;76005;50.882;3.882;2024-01-27T11:23:13;11.57;;;4.53;;
85561;SDS011;76005;50.882;3.882;2024-01-27T11:25:39;11.75;;;4.22;;
85561;SDS011;76005;50.882;3.882;2024-01-27T11:28:16;11.30;;;4.35;;
85561;SDS011;76005;50.882;3.882;2024-01-27T11:30:45;12.95;;;4.70;;
85561;SDS011;76005;50.882;3.882;2024-01-27T11:33:12;12.55;;;4.13;;
85561;SDS011;76005;50.882;3.882;2024-01-27T11:35:38;13.20;;;4.57;;
85561;SDS011;76005;50.882;3.882;2024-01-27T11:38:04;12.30;;;4.47;;
85561;SDS011;76005;50.882;3.882;2024-01-27T11:40:30;11.65;;;4.13;;
85561;SDS011;76005;50.882;3.882;2024-01-27T11:42:57;12.60;;;4.55;;
85561;SDS011;76005;50.882;3.882;2024-01-27T11:45:23;12.43;;;4.53;;
85561;SDS011;76005;50.882;3.882;2024-01-27T11:47:49;10.40;;;4.05;;
85561;SDS011;76005;50.882;3.882;2024-01-27T11:50:18;13.98;;;4.10;;
85561;SDS011;76005;50.882;3.882;2024-01-27T11:52:44;10.93;;;4.32;;
85561;SDS011;76005;50.882;3.882;2024-01-27T11:55:10;11.13;;;4.17;;
85561;SDS011;76005;50.882;3.882;2024-01-27T11:57:36;12.38;;;4.55;;
85561;SDS011;76005;50.882;3.882;2024-01-27T12:00:02;8.93;;;3.95;;
85561;SDS011;76005;50.882;3.882;2024-01-27T12:02:29;15.38;;;4.22;;
85561;SDS011;76005;50.882;3.882;2024-01-27T12:04:55;11.00;;;4.28;;
85561;SDS011;76005;50.882;3.882;2024-01-27T12:07:20;10.32;;;4.18;;
85561;SDS011;76005;50.882;3.882;2024-01-27T12:09:50;10.95;;;4.22;;
85561;SDS011;76005;50.882;3.882;2024-01-27T12:12:16;12.90;;;4.05;;
85561;SDS011;76005;50.882;3.882;2024-01-27T12:14:45;10.25;;;3.80;;
85561;SDS011;76005;50.882;3.882;2024-01-27T12:17:12;10.38;;;3.28;;
85561;SDS011;76005;50.882;3.882;2024-01-27T12:19:39;11.70;;;3.27;;
85561;SDS011;76005;50.882;3.882;2024-01-27T12:22:26;12.43;;;3.60;;
85561;SDS011;76005;50.882;3.882;2024-01-27T12:24:55;11.90;;;4.00;;
85561;SDS011;76005;50.882;3.882;2024-01-27T12:27:33;12.05;;;4.13;;
85561;SDS011;76005;50.882;3.882;2024-01-27T12:30:00;11.75;;;3.90;;
85561;SDS011;76005;50.882;3.882;2024-01-27T12:32:26;11.00;;;3.45;;
85561;SDS011;76005;50.882;3.882;2024-01-27T12:34:52;8.45;;;3.30;;
85561;SDS011;76005;50.882;3.882;2024-01-27T12:37:20;9.35;;;3.65;;
85561;SDS011;76005;50.882;3.882;2024-01-27T12:39:47;12.15;;;4.07;;
85561;SDS011;76005;50.882;3.882;2024-01-27T12:42:16;12.77;;;3.55;;
85561;SDS011;76005;50.882;3.882;2024-01-27T12:44:42;11.73;;;3.67;;
85561;SDS011;76005;50.882;3.882;2024-01-27T12:47:11;9.65;;;3.53;;
85561;SDS011;76005;50.882;3.882;2024-01-27T12:49:38;9.13;;;3.17;;
85561;SDS011;76005;50.882;3.882;2024-01-27T12:52:04;8.88;;;3.28;;
85561;SDS011;76005;50.882;3.882;2024-01-27T12:54:31;12.33;;;2.70;;
85561;SDS011;76005;50.882;3.882;2024-01-27T12:56:56;8.55;;;3.38;;
85561;SDS011;76005;50.882;3.882;2024-01-27T12:59:22;7.40;;;3.05;;
85561;SDS011;76005;50.882;3.882;2024-01-27T13:01:48;10.43;;;3.45;;
85561;SDS011;76005;50.882;3.882;2024-01-27T13:04:14;9.93;;;3.20;;
85561;SDS011;76005;50.882;3.882;2024-01-27T13:06:40;8.68;;;2.97;;
85561;SDS011;76005;50.882;3.882;2024-01-27T13:09:07;10.02;;;3.40;;
85561;SDS011;76005;50.882;3.882;2024-01-27T13:11:36;11.23;;;3.28;;
85561;SDS011;76005;50.882;3.882;2024-01-27T13:14:03;11.20;;;3.38;;
85561;SDS011;76005;50.882;3.882;2024-01-27T13:16:30;10.90;;;4.03;;
85561;SDS011;76005;50.882;3.882;2024-01-27T13:18:56;8.93;;;3.53;;
85561;SDS011;76005;50.882;3.882;2024-01-27T13:21:22;10.02;;;2.95;;
85561;SDS011;76005;50.882;3.882;2024-01-27T13:23:47;10.77;;;2.85;;
85561;SDS011;76005;50.882;3.882;2024-01-27T13:26:13;8.88;;;3.03;;
85561;SDS011;76005;50.882;3.882;2024-01-27T13:28:39;9.25;;;3.10;;
85561;SDS011;76005;50.882;3.882;2024-01-27T13:31:05;10.95;;;3.30;;
85561;SDS011;76005;50.882;3.882;2024-01-27T13:33:32;8.38;;;2.88;;
85561;SDS011;76005;50.882;3.882;2024-01-27T13:36:00;8.45;;;2.92;;
85561;SDS011;76005;50.882;3.882;2024-01-27T13:38:26;11.93;;;3.55;;
85561;SDS011;76005;50.882;3.882;2024-01-27T13:40:51;6.70;;;2.85;;
85561;SDS011;76005;50.882;3.882;2024-01-27T13:43:17;8.43;;;3.08;;
85561;SDS011;76005;50.882;3.882;2024-01-27T13:45:43;10.40;;;3.58;;
85561;SDS011;76005;50.882;3.882;2024-01-27T13:48:09;11.87;;;3.57;;
85561;SDS011;76005;50.882;3.882;2024-01-27T13:50:35;8.60;;;2.58;;
85561;SDS011;76005;50.882;3.882;2024-01-27T13:53:01;8.93;;;3.08;;
85561;SDS011;76005;50.882;3.882;2024-01-27T13:55:28;9.52;;;3.67;;
85561;SDS011;76005;50.882;3.882;2024-01-27T13:57:54;8.20;;;2.78;;
85561;SDS011;76005;50.882;3.882;2024-01-27T14:00:19;8.98;;;2.95;;
85561;SDS011;76005;50.882;3.882;2024-01-27T14:02:46;11.48;;;3.47;;
85561;SDS011;76005;50.882;3.882;2024-01-27T14:05:12;9.38;;;2.85;;
85561;SDS011;76005;50.882;3.882;2024-01-27T14:07:37;6.93;;;2.97;;
85561;SDS011;76005;50.882;3.882;2024-01-27T14:10:03;8.20;;;2.75;;
85561;SDS011;76005;50.882;3.882;2024-01-27T14:12:29;7.65;;;2.72;;
85561;SDS011;76005;50.882;3.882;2024-01-27T14:15:03;7.93;;;2.53;;
85561;SDS011;76005;50.882;3.882;2024-01-27T14:17:32;10.52;;;2.67;;
85561;SDS011;76005;50.882;3.882;2024-01-27T14:20:00;8.52;;;2.33;;
85561;SDS011;76005;50.882;3.882;2024-01-27T14:22:26;6.88;;;2.40;;
85561;SDS011;76005;50.882;3.882;2024-01-27T14:24:52;8.48;;;2.30;;
85561;SDS011;76005;50.882;3.882;2024-01-27T14:27:18;8.38;;;2.30;;
85561;SDS011;76005;50.882;3.882;2024-01-27T14:29:50;7.43;;;2.40;;
85561;SDS011;76005;50.882;3.882;2024-01-27T14:32:17;7.65;;;2.20;;
85561;SDS011;76005;50.882;3.882;2024-01-27T14:34:43;5.63;;;2.28;;
85561;SDS011;76005;50.882;3.882;2024-01-27T14:37:08;7.65;;;2.13;;
85561;SDS011;76005;50.882;3.882;2024-01-27T14:39:34;8.93;;;2.90;;
85561;SDS011;76005;50.882;3.882;2024-01-27T14:42:00;9.20;;;3.23;;
85561;SDS011;76005;50.882;3.882;2024-01-27T14:44:29;9.02;;;2.67;;
85561;SDS011;76005;50.882;3.882;2024-01-27T14:46:55;9.40;;;2.60;;
85561;SDS011;76005;50.882;3.882;2024-01-27T14:49:21;9.07;;;2.17;;